createdAt,value
2024-03-09T00:01:18.709Z,98338.56
2024-03-09T00:04:27.188Z,98337.72
2024-03-09T00:07:33.804Z,98335.09
2024-03-09T00:10:40.161Z,98331.66
2024-03-09T00:13:46.863Z,98329.13
2024-03-09T00:16:54.101Z,98325.84
2024-03-09T00:20:04.469Z,98316.31
2024-03-09T00:23:11.300Z,98319.78
2024-03-09T00:26:18.454Z,98312.06
2024-03-09T00:29:26.187Z,98314.59
2024-03-09T00:32:33.965Z,98323.19
2024-03-09T00:35:42.794Z,98302.41
2024-03-09T00:38:49.415Z,98305.94
2024-03-09T00:41:55.286Z,98300.75
2024-03-09T00:45:03.931Z,98317.44
2024-03-09T00:48:10.712Z,98311.69
2024-03-09T00:51:19.898Z,98315.19
2024-03-09T00:54:27.074Z,98307.38
2024-03-09T00:57:34.710Z,98299.69
2024-03-09T01:00:40.551Z,98295.28
2024-03-09T01:03:47.202Z,98297.94
2024-03-09T01:06:55.817Z,98294.41
2024-03-09T01:10:02.676Z,98295.22
2024-03-09T01:13:09.739Z,98295.22
2024-03-09T01:16:16.608Z,98293.53
2024-03-09T01:19:22.877Z,98284.13
2024-03-09T01:22:32.157Z,98278.00
2024-03-09T01:25:38.163Z,98289.22
2024-03-09T01:28:47.108Z,98282.38
2024-03-09T01:31:53.952Z,98276.31
2024-03-09T01:35:01.298Z,98274.63
2024-03-09T01:38:11.517Z,98266.03
2024-03-09T01:41:18.200Z,98271.22
2024-03-09T01:44:24.151Z,98266.88
2024-03-09T01:47:31.969Z,98262.66
2024-03-09T01:50:38.953Z,98262.66
2024-03-09T01:53:54.804Z,98261.00
2024-03-09T01:57:01.515Z,98261.00
2024-03-09T02:00:11.954Z,98255.09
2024-03-09T02:03:18.634Z,98257.69
2024-03-09T02:06:28.446Z,98257.69
2024-03-09T02:09:41.588Z,98251.66
2024-03-09T02:12:49.811Z,98243.84
2024-03-09T02:15:59.113Z,98243.06
2024-03-09T02:19:08.555Z,98245.69
2024-03-09T02:22:18.700Z,98240.59
2024-03-09T02:25:31.339Z,98194.72
2024-03-09T02:28:37.431Z,98238.91
2024-03-09T02:31:44.324Z,98238.00
2024-03-09T02:34:50.169Z,98240.66
2024-03-09T02:37:57.463Z,98230.22
2024-03-09T02:41:06.920Z,98223.28
2024-03-09T02:44:17.106Z,98238.00
2024-03-09T02:47:23.929Z,98231.94
2024-03-09T02:50:30.953Z,98235.47
2024-03-09T02:53:37.561Z,98234.59
2024-03-09T02:56:48.061Z,98232.09
2024-03-09T02:59:54.775Z,98232.91
2024-03-09T03:03:13.007Z,98237.28
2024-03-09T03:06:20.414Z,98233.03
2024-03-09T03:09:26.272Z,98234.78
2024-03-09T03:12:35.689Z,98228.81
2024-03-09T03:15:42.993Z,98228.00
2024-03-09T03:18:50.833Z,98221.97
2024-03-09T03:21:56.680Z,98224.63
2024-03-09T03:25:03.466Z,98220.28
2024-03-09T03:28:11.955Z,98224.72
2024-03-09T03:31:20.422Z,98216.09
2024-03-09T03:34:29.477Z,98206.66
2024-03-09T03:37:36.787Z,98207.44
2024-03-09T03:40:42.770Z,98202.28
2024-03-09T03:43:52.755Z,98204.06
2024-03-09T03:46:58.862Z,98207.44
2024-03-09T03:50:05.890Z,98205.78
2024-03-09T03:53:11.901Z,98201.41
2024-03-09T03:56:18.846Z,98207.44
2024-03-09T03:59:27.451Z,98205.78
2024-03-09T04:02:35.376Z,98200.59
2024-03-09T04:05:41.262Z,98201.53
2024-03-09T04:08:47.850Z,98197.28
2024-03-09T04:11:53.743Z,98205.25
2024-03-09T04:15:03.657Z,98201.06
2024-03-09T04:18:10.023Z,98203.88
2024-03-09T04:21:17.960Z,98201.44
2024-03-09T04:24:23.733Z,98211.00
2024-03-09T04:27:30.314Z,98199.84
2024-03-09T04:30:38.844Z,98211.06
2024-03-09T04:33:45.461Z,98203.31
2024-03-09T04:36:51.334Z,98203.31
2024-03-09T04:40:00.478Z,98199.84
2024-03-09T04:43:07.583Z,98205.03
2024-03-09T04:46:16.783Z,98198.22
2024-03-09T04:49:23.067Z,98196.63
2024-03-09T04:52:29.800Z,98194.03
2024-03-09T04:55:37.671Z,98201.75
2024-03-09T04:58:44.662Z,98201.66
2024-03-09T05:01:53.113Z,98199.03
2024-03-09T05:04:59.832Z,98189.47
2024-03-09T05:08:05.962Z,98188.53
2024-03-09T05:11:14.198Z,98190.97
2024-03-09T05:14:21.569Z,98189.25
2024-03-09T05:17:31.242Z,98186.66
2024-03-09T05:20:37.232Z,98189.19
2024-03-09T05:23:44.067Z,98190.97
2024-03-09T05:26:49.843Z,98178.16
2024-03-09T05:29:57.034Z,98173.88
2024-03-09T05:33:08.685Z,98181.53
2024-03-09T05:36:15.537Z,98170.41
2024-03-09T05:39:21.476Z,98174.47
2024-03-09T05:42:28.156Z,98183.91
2024-03-09T05:45:36.752Z,98181.13
2024-03-09T05:48:47.538Z,98174.94
2024-03-09T05:51:53.481Z,98178.22
2024-03-09T05:55:00.061Z,98178.06
2024-03-09T05:58:08.970Z,98174.44
2024-03-09T06:01:15.675Z,98167.38
2024-03-09T06:04:24.259Z,98177.56
2024-03-09T06:07:31.145Z,98172.19
2024-03-09T06:10:41.314Z,98180.66
2024-03-09T06:13:53.521Z,98173.56
2024-03-09T06:16:59.462Z,98184.66
2024-03-09T06:20:10.844Z,98177.53
2024-03-09T06:23:17.378Z,98171.19
2024-03-09T06:26:24.134Z,98176.16
2024-03-09T06:29:29.942Z,98177.66
2024-03-09T06:32:36.601Z,98173.22
2024-03-09T06:35:47.077Z,98180.72
2024-03-09T06:38:54.463Z,98182.19
2024-03-09T06:42:00.225Z,98182.88
2024-03-09T06:45:09.440Z,98182.81
2024-03-09T06:48:15.944Z,98180.13
2024-03-09T06:51:25.464Z,98188.56
2024-03-09T06:54:31.441Z,98184.09
2024-03-09T06:57:38.590Z,98190.91
2024-03-09T07:00:44.432Z,98191.50
2024-03-09T07:03:51.192Z,98185.97
2024-03-09T07:06:59.822Z,98182.13
2024-03-09T07:10:09.107Z,98180.03
2024-03-09T07:13:16.530Z,98180.56
2024-03-09T07:16:23.527Z,98181.91
2024-03-09T07:19:29.423Z,98180.66
2024-03-09T07:22:38.718Z,98173.28
2024-03-09T07:25:44.578Z,98176.41
2024-03-09T07:28:51.301Z,98176.94
2024-03-09T07:31:57.125Z,98179.19
2024-03-09T07:35:06.894Z,98171.94
2024-03-09T07:38:15.499Z,98171.56
2024-03-09T07:41:23.669Z,98181.84
2024-03-09T07:44:31.642Z,98178.06
2024-03-09T07:47:39.546Z,98173.19
2024-03-09T07:50:55.386Z,98170.09
2024-03-09T07:54:04.701Z,98169.91
2024-03-09T07:57:11.699Z,98169.53
2024-03-09T08:00:23.855Z,98172.66
2024-03-09T08:03:34.068Z,98174.09
2024-03-09T08:06:41.694Z,98159.91
2024-03-09T08:09:50.181Z,98168.09
2024-03-09T08:13:00.262Z,98166.00
2024-03-09T08:16:06.530Z,98162.13
2024-03-09T08:19:13.222Z,98160.09
2024-03-09T08:22:19.095Z,98153.69
2024-03-09T08:25:29.313Z,98159.53
2024-03-09T08:28:35.619Z,98148.53
2024-03-09T08:31:44.071Z,98153.34
2024-03-09T08:34:50.357Z,98146.75
2024-03-09T08:37:58.214Z,98146.25
2024-03-09T08:41:07.151Z,98146.66
2024-03-09T08:44:14.647Z,98140.88
2024-03-09T08:47:20.579Z,98132.56
2024-03-09T08:50:29.068Z,98128.53
2024-03-09T08:53:34.945Z,98128.16
2024-03-09T08:56:44.160Z,98128.44
2024-03-09T08:59:53.602Z,98124.47
2024-03-09T09:03:01.476Z,98130.94
2024-03-09T09:06:10.400Z,98059.88
2024-03-09T09:09:26.644Z,98112.47
2024-03-09T09:12:35.134Z,98110.00
2024-03-09T09:15:43.784Z,98108.38
2024-03-09T09:18:49.652Z,98102.59
2024-03-09T09:21:57.523Z,98109.09
2024-03-09T09:25:03.962Z,98094.75
2024-03-09T09:28:14.794Z,98098.56
2024-03-09T09:31:20.657Z,98106.06
2024-03-09T09:34:29.694Z,98090.81
2024-03-09T09:37:35.632Z,98096.38
2024-03-09T09:40:42.391Z,98091.47
2024-03-09T09:43:53.013Z,98085.72
2024-03-09T09:47:00.267Z,98081.72
2024-03-09T09:50:10.176Z,98083.97
2024-03-09T09:53:20.412Z,98080.09
2024-03-09T09:56:27.217Z,98080.44
2024-03-09T09:59:36.677Z,98068.59
2024-03-09T10:02:42.800Z,98067.19
2024-03-09T10:05:50.213Z,98071.03
2024-03-09T10:08:58.701Z,98071.53
2024-03-09T10:12:05.485Z,98056.28
2024-03-09T10:15:19.017Z,98056.00
2024-03-09T10:18:26.064Z,98046.75
2024-03-09T10:21:38.717Z,98036.53
2024-03-09T10:24:57.750Z,98046.47
2024-03-09T10:28:03.789Z,98032.03
2024-03-09T10:31:14.141Z,98036.91
2024-03-09T10:34:20.596Z,98037.38
2024-03-09T10:37:27.456Z,98044.75
2024-03-09T10:40:33.392Z,98035.97
2024-03-09T10:43:46.084Z,98029.50
2024-03-09T10:46:59.164Z,98029.00
2024-03-09T10:50:18.419Z,98037.41
2024-03-09T10:53:54.985Z,98025.78
2024-03-09T10:57:07.009Z,98007.75
2024-03-09T11:00:29.609Z,98006.38
2024-03-09T11:03:40.044Z,98013.09
2024-03-09T11:06:48.822Z,98006.84
2024-03-09T11:09:57.589Z,97996.66
2024-03-09T11:13:04.206Z,97998.34
2024-03-09T11:16:11.359Z,98000.97
2024-03-09T11:19:20.156Z,97992.03
2024-03-09T11:22:46.708Z,97995.13
2024-03-09T11:25:57.549Z,97991.16
2024-03-09T11:29:05.072Z,97930.59
2024-03-09T11:32:13.911Z,97973.31
2024-03-09T11:35:36.943Z,97969.72
2024-03-09T11:38:47.142Z,97918.00
2024-03-09T11:41:56.626Z,97968.06
2024-03-09T11:45:13.484Z,97961.97
2024-03-09T11:48:23.319Z,97958.19
2024-03-09T11:51:35.239Z,97957.16
2024-03-09T11:54:45.212Z,97948.75
2024-03-09T11:57:52.353Z,97946.84
2024-03-09T12:00:59.086Z,97947.50
2024-03-09T12:04:06.864Z,97944.34
2024-03-09T12:07:16.836Z,97935.91
2024-03-09T12:10:23.556Z,97935.06
2024-03-09T12:13:30.193Z,97935.38
2024-03-09T12:16:36.954Z,97928.75
2024-03-09T12:19:49.191Z,97936.53
2024-03-09T12:22:57.854Z,97922.84
2024-03-09T12:26:05.689Z,97924.53
2024-03-09T12:29:15.111Z,97922.91
2024-03-09T12:32:26.451Z,97911.28
2024-03-09T12:35:37.136Z,97914.22
2024-03-09T12:38:46.432Z,97907.75
2024-03-09T12:41:57.952Z,97909.00
2024-03-09T12:45:04.891Z,97898.97
2024-03-09T12:48:12.922Z,97902.88
2024-03-09T12:51:20.211Z,97897.47
2024-03-09T12:54:32.398Z,97903.38
2024-03-09T12:57:39.204Z,97905.66
2024-03-09T13:00:47.469Z,97897.66
2024-03-09T13:04:01.315Z,97902.38
2024-03-09T13:07:08.980Z,97887.47
2024-03-09T13:10:25.880Z,97890.97
2024-03-09T13:13:31.814Z,97882.03
2024-03-09T13:16:42.279Z,97885.31
2024-03-09T13:19:49.425Z,97875.22
2024-03-09T13:22:56.122Z,97869.47
2024-03-09T13:26:04.564Z,97872.13
2024-03-09T13:29:11.276Z,97875.00
2024-03-09T13:32:20.034Z,97869.84
2024-03-09T13:35:27.412Z,97867.81
2024-03-09T13:38:33.211Z,97876.19
2024-03-09T13:41:44.145Z,97863.94
2024-03-09T13:44:50.719Z,97859.28
2024-03-09T13:48:11.203Z,97858.19
2024-03-09T13:51:17.718Z,97856.03
2024-03-09T13:54:24.383Z,97859.13
2024-03-09T13:57:35.481Z,97860.31
2024-03-09T14:00:43.330Z,97863.94
2024-03-09T14:03:50.891Z,97861.63
2024-03-09T14:07:07.545Z,97849.06
2024-03-09T14:10:17.152Z,97853.63
2024-03-09T14:13:26.449Z,97843.78
2024-03-09T14:16:34.838Z,97840.44
2024-03-09T14:19:41.667Z,97849.78
2024-03-09T14:22:48.329Z,97834.19
2024-03-09T14:25:56.090Z,97839.56
2024-03-09T14:29:04.717Z,97833.47
2024-03-09T14:32:12.001Z,97837.50
2024-03-09T14:35:21.991Z,97830.28
2024-03-09T14:38:29.376Z,97829.81
2024-03-09T14:41:36.541Z,97825.22
2024-03-09T14:44:46.891Z,97829.44
2024-03-09T14:47:56.004Z,97823.22
2024-03-09T14:51:02.667Z,97821.19
2024-03-09T14:54:08.822Z,97829.91
2024-03-09T14:57:16.332Z,97822.84
2024-03-09T15:00:45.104Z,97819.16
2024-03-09T15:03:52.063Z,97814.72
2024-03-09T15:06:57.930Z,97805.13
2024-03-09T15:10:04.510Z,97820.50
2024-03-09T15:13:11.081Z,97810.66
2024-03-09T15:16:24.101Z,97811.75
2024-03-09T15:19:30.099Z,97802.03
2024-03-09T15:22:36.749Z,97804.69
2024-03-09T15:25:44.806Z,97800.41
2024-03-09T15:28:51.545Z,97786.06
2024-03-09T15:32:02.548Z,97786.69
2024-03-09T15:35:11.221Z,97782.25
2024-03-09T15:38:17.602Z,97774.34
2024-03-09T15:41:24.490Z,97776.41
2024-03-09T15:44:30.388Z,97773.97
2024-03-09T15:47:39.631Z,97776.03
2024-03-09T15:50:48.332Z,97765.72
2024-03-09T15:53:55.041Z,97776.50
2024-03-09T15:57:00.900Z,97779.13
2024-03-09T16:00:14.551Z,97783.19
2024-03-09T16:03:24.245Z,97776.47
2024-03-09T16:06:31.094Z,97761.41
2024-03-09T16:09:36.983Z,97767.34
2024-03-09T16:12:43.686Z,97769.28
2024-03-09T16:15:51.520Z,97765.91
2024-03-09T16:19:00.900Z,97767.59
2024-03-09T16:22:09.821Z,97761.13
2024-03-09T16:25:17.924Z,97766.59
2024-03-09T16:28:27.892Z,97777.56
2024-03-09T16:31:37.342Z,97772.28
2024-03-09T16:34:46.616Z,97771.78
2024-03-09T16:37:53.301Z,97770.00
2024-03-09T16:41:02.734Z,97772.50
2024-03-09T16:44:09.595Z,97760.09
2024-03-09T16:47:16.915Z,97772.28
2024-03-09T16:50:27.167Z,97755.28
2024-03-09T16:53:34.460Z,97774.41
2024-03-09T16:56:43.122Z,97769.16
2024-03-09T16:59:49.265Z,97774.41
2024-03-09T17:02:56.349Z,97777.97
2024-03-09T17:06:09.089Z,97776.94
2024-03-09T17:09:16.323Z,97779.66
2024-03-09T17:12:22.857Z,97781.69
2024-03-09T17:15:31.378Z,97780.13
2024-03-09T17:18:37.224Z,97783.94
2024-03-09T17:21:52.123Z,97778.19
2024-03-09T17:24:59.919Z,97777.25
2024-03-09T17:28:08.796Z,97781.66
2024-03-09T17:31:14.687Z,97776.63
2024-03-09T17:34:21.837Z,97738.34
2024-03-09T17:37:30.268Z,97766.84
2024-03-09T17:40:37.745Z,97763.50
2024-03-09T17:43:44.049Z,97769.19
2024-03-09T17:46:51.974Z,97768.19
2024-03-09T17:49:58.013Z,97763.72
2024-03-09T17:53:07.869Z,97766.16
2024-03-09T17:56:18.171Z,97767.44
2024-03-09T17:59:25.491Z,97764.19
2024-03-09T18:02:33.972Z,97762.94
2024-03-09T18:05:40.951Z,97766.97
2024-03-09T18:08:49.576Z,97765.50
2024-03-09T18:11:56.263Z,97763.31
2024-03-09T18:15:10.666Z,97759.13
2024-03-09T18:18:21.450Z,97768.66
2024-03-09T18:21:28.058Z,97769.63
2024-03-09T18:24:37.287Z,97771.28
2024-03-09T18:27:43.870Z,97767.72
2024-03-09T18:30:50.507Z,97767.59
2024-03-09T18:33:56.291Z,97771.19
2024-03-09T18:37:03.656Z,97777.25
2024-03-09T18:40:14.304Z,97769.09
2024-03-09T18:43:20.915Z,97763.59
2024-03-09T18:46:27.119Z,97763.59
2024-03-09T18:49:36.639Z,97765.28
2024-03-09T18:52:42.611Z,97766.97
2024-03-09T18:55:51.920Z,97770.19
2024-03-09T18:58:57.836Z,97757.91
2024-03-09T19:02:04.642Z,97765.56
2024-03-09T19:05:12.142Z,97763.88
2024-03-09T19:08:19.045Z,97766.97
2024-03-09T19:11:27.665Z,97709.03
2024-03-09T19:14:35.435Z,97760.44
2024-03-09T19:17:43.119Z,97764.25
2024-03-09T19:20:49.724Z,97754.69
2024-03-09T19:23:55.579Z,97750.19
2024-03-09T19:27:06.008Z,97754.69
2024-03-09T19:30:17.232Z,97750.19
2024-03-09T19:33:24.212Z,97754.25
2024-03-09T19:36:31.922Z,97756.69
2024-03-09T19:39:38.516Z,97755.63
2024-03-09T19:42:48.119Z,97750.69
2024-03-09T19:45:57.965Z,97758.28
2024-03-09T19:49:03.952Z,97748.91
2024-03-09T19:52:10.657Z,97750.81
2024-03-09T19:55:16.846Z,97744.94
2024-03-09T19:58:26.275Z,97746.00
2024-03-09T20:01:34.792Z,97742.22
2024-03-09T20:04:42.860Z,97739.38
2024-03-09T20:07:51.844Z,97748.91
2024-03-09T20:11:03.346Z,97746.81
2024-03-09T20:14:11.923Z,97738.84
2024-03-09T20:17:18.763Z,97746.38
2024-03-09T20:20:27.927Z,97749.00
2024-03-09T20:23:34.932Z,97744.94
2024-03-09T20:26:40.728Z,97739.25
2024-03-09T20:29:50.006Z,97743.16
2024-03-09T20:32:55.828Z,97740.72
2024-03-09T20:36:02.503Z,97735.50
2024-03-09T20:39:12.333Z,97735.28
2024-03-09T20:42:20.505Z,97738.03
2024-03-09T20:45:28.988Z,97738.03
2024-03-09T20:48:36.034Z,97732.44
2024-03-09T20:51:42.683Z,97729.59
2024-03-09T20:54:49.250Z,97720.66
2024-03-09T20:57:55.071Z,97723.41
2024-03-09T21:01:04.849Z,97720.16
2024-03-09T21:04:10.758Z,97723.72
2024-03-09T21:07:17.462Z,97726.03
2024-03-09T21:10:23.976Z,97740.19
2024-03-09T21:13:30.653Z,97739.38
2024-03-09T21:16:39.081Z,97741.88
2024-03-09T21:19:45.720Z,97738.19
2024-03-09T21:22:52.479Z,97745.16
2024-03-09T21:25:59.132Z,97736.75
2024-03-09T21:29:05.585Z,97739.03
2024-03-09T21:32:15.021Z,97679.66
2024-03-09T21:35:22.778Z,97728.13
2024-03-09T21:38:29.516Z,97736.72
2024-03-09T21:41:35.676Z,97736.72
2024-03-09T21:44:42.415Z,97733.47
2024-03-09T21:47:55.096Z,97735.25
2024-03-09T21:51:07.931Z,97727.47
2024-03-09T21:54:15.196Z,97724.97
2024-03-09T21:57:21.815Z,97719.31
2024-03-09T22:00:27.768Z,97715.53
2024-03-09T22:03:39.852Z,97711.78
2024-03-09T22:06:45.945Z,97717.47
2024-03-09T22:09:54.693Z,97710.13
2024-03-09T22:13:00.628Z,97701.00
2024-03-09T22:16:08.110Z,97699.31
2024-03-09T22:19:17.276Z,97701.19
2024-03-09T22:22:23.863Z,97696.88
2024-03-09T22:25:29.918Z,97698.88
2024-03-09T22:28:36.641Z,97699.63
2024-03-09T22:31:42.597Z,97701.28
2024-03-09T22:34:51.944Z,97706.34
2024-03-09T22:37:59.219Z,97707.56
2024-03-09T22:41:07.003Z,97709.69
2024-03-09T22:44:14.081Z,97705.94
2024-03-09T22:47:20.898Z,97703.81
2024-03-09T22:50:30.135Z,97695.63
2024-03-09T22:53:37.048Z,97700.44
2024-03-09T22:56:42.863Z,97702.94
2024-03-09T22:59:49.694Z,97697.50
2024-03-09T23:02:55.624Z,97700.84
2024-03-09T23:06:04.966Z,97691.19
2024-03-09T23:09:11.113Z,97696.44
2024-03-09T23:12:19.469Z,97693.94
2024-03-09T23:15:27.741Z,97691.41
2024-03-09T23:18:35.749Z,97696.03
2024-03-09T23:21:44.349Z,97695.53
2024-03-09T23:24:50.994Z,97689.00
2024-03-09T23:27:57.233Z,97699.97
2024-03-09T23:31:05.160Z,97694.28
2024-03-09T23:34:11.140Z,97695.25
2024-03-09T23:37:20.384Z,97704.94
2024-03-09T23:40:26.332Z,97702.78
2024-03-09T23:43:33.132Z,97704.03
2024-03-09T23:46:39.552Z,97698.06
2024-03-09T23:49:46.161Z,97704.22
2024-03-09T23:52:54.581Z,97697.53
2024-03-09T23:56:01.300Z,97692.50
2024-03-09T23:59:08.040Z,97692.69
